• Join FlightAware (Why Join?)
  • Login
  • US Flag 
04:17AM EDT


 

Airport Tracker/Info


-or-


 

Live Flight TrackerFlight Track Log ✈ SWA361 ✈ 20-Oct-2013 ✈ KMHT - KMDW

Flight Track Log - Related Links

Times and Time Zones

All times are in EDT time to prevent confusion due to time zone crossing. See the SWA361 flight status page for this flight to view local times or setup timezone preferences in your user account.

Time Position Orientation Groundspeed Altitude Reporting Facility
EDT Latitude Longitude Course Direction KTS MPH feet Rate Location/Type
05:35PM 42.9130 -71.4890 251° West 197 227 2,300  Level FlightAware
05:35PM 42.9120 -71.4980 261° West 202 232 2,600 2,760 Climbing FlightAware
05:36PM 42.9130 -71.5270 273° West 216 249 3,700 3,060 Climbing FlightAware
05:36PM 42.9140 -71.5460 274° West 226 260 4,400 2,100 Climbing FlightAware
05:36PM 42.9160 -71.5810 274° West 237 273 5,000 1,080 Climbing FlightAware
05:37PM 42.9190 -71.5930 289° West 236 272 5,000 180 Level FlightAware
05:37PM 42.9280 -71.6190 295° West 236 272 5,100 1,260 Climbing FlightAware
05:37PM 42.9380 -71.6480 295° West 235 270 5,900 3,180 Climbing FlightAware
05:38PM 42.9480 -71.6770 295° West 230 265 7,400 3,540 Climbing FlightAware
05:38PM 42.9560 -71.7030 293° West 239 275 8,400 2,880 Climbing FlightAware
05:38PM 42.9610 -71.7180 294° West 244 281 8,900 2,820 Climbing FlightAware
05:39PM 42.9800 -71.7720 296° West 263 303 10,700 2,400 Climbing FlightAware
05:39PM 42.9850 -71.7940 287° West 286 329 10,900 1,560 Climbing FlightAware
05:40PM 42.9920 -71.8650 278° West 319 367 12,000 2,280 Climbing FlightAware
05:40PM 43.0010 -71.9340 280° West 329 379 13,600 2,820 Climbing FlightAware
05:41PM 43.0120 -72.0110 281° West 335 386 15,400 2,760 Climbing FlightAware
05:41PM 43.0220 -72.0720 283° West 340 391 16,700 2,640 Climbing FlightAware
05:42PM 43.0340 -72.1500 282° West 344 396 18,400 2,580 Climbing FlightAware
05:42PM 43.0480 -72.2300 283° West 351 404 19,900 2,280 Climbing FlightAware
05:43PM 43.0610 -72.3040 284° West 359 413 21,100 2,040 Climbing FlightAware
05:44PM 43.0750 -72.3800 284° West 365 420 22,300 2,100 Climbing FlightAware
05:44PM 43.0910 -72.4610 285° West 367 422 23,600 2,040 Climbing FlightAware
05:45PM 43.1050 -72.5350 285° West 368 423 24,700 1,860 Climbing FlightAware
05:45PM 43.1190 -72.6080 285° West 371 427 25,700 1,620 Climbing FlightAware
05:46PM 43.1350 -72.6930 284° West 379 436 26,600 1,320 Climbing FlightAware
05:47PM 43.1510 -72.7790 284° West 388 447 27,300 1,380 Climbing FlightAware
05:47PM 43.1660 -72.8610 284° West 386 444 28,300 1,620 Climbing FlightAware
05:48PM 43.1700 -72.9230 275° West 381 438 29,000 1,620 Climbing FlightAware
05:48PM 43.1710 -73.0190 271° West 382 440 30,100 1,500 Climbing FlightAware
05:49PM 43.1720 -73.0980 271° West 384 442 30,800 1,320 Climbing FlightAware
05:49PM 43.1720 -73.1810 270° West 383 441 31,600 1,560 Climbing FlightAware
05:50PM 43.1730 -73.2640 271° West 378 435 32,600 1,500 Climbing FlightAware
05:50PM 43.1740 -73.3390 271° West 377 434 33,300 1,200 Climbing FlightAware
05:51PM 43.1740 -73.4160 270° West 376 433 34,000 1,200 Climbing FlightAware
05:52PM 43.1750 -73.5180 271° West 374 430 34,800 1,080 Climbing FlightAware
05:52PM 43.1750 -73.5830 270° West 375 432 35,300 1,020 Climbing FlightAware
05:53PM 43.1760 -73.6710 271° West 376 433 35,900 600 Climbing FlightAware
05:53PM 43.1760 -73.7460 270° West 373 429 36,000 60 Climbing FlightAware
05:54PM 43.1770 -73.8490 271° West 374 430 36,000  Level FlightAware
05:55PM 43.1770 -73.9290 270° West 373 429 36,000  Level FlightAware
05:55PM 43.1770 -74.0260 270° West 373 429 36,000  Level FlightAware
05:56PM 43.1770 -74.0940 270° West 373 429 36,000  Level FlightAware
05:56PM 43.1770 -74.2000 270° West 372 428 36,000  Level FlightAware
05:57PM 43.1770 -74.2790 270° West 372 428 36,000  Level FlightAware
05:58PM 43.1770 -74.3750 270° West 371 427 36,000  Level FlightAware
05:58PM 43.1770 -74.4500 270° West 371 427 36,000  Level FlightAware
05:59PM 43.1770 -74.5460 270° West 371 427 36,000  Level FlightAware
06:00PM 43.1770 -74.6300 270° West 371 427 36,000  Level FlightAware
06:00PM 43.1710 -74.7000 263° West 370 426 36,000  Level FlightAware
06:01PM 43.1620 -74.7770 261° West 370 426 36,000  Level FlightAware
06:01PM 43.1530 -74.8620 262° West 369 425 36,000  Level FlightAware
06:02PM 43.1450 -74.9400 262° West 370 426 36,000  Level FlightAware
06:02PM 43.1350 -75.0240 261° West 369 425 36,000  Level FlightAware
06:03PM 43.1260 -75.1060 261° West 370 426 36,000  Level FlightAware
06:04PM 43.1170 -75.1880 261° West 371 427 36,000  Level FlightAware
06:04PM 43.1070 -75.2760 261° West 371 427 36,000  Level FlightAware
06:05PM 43.0990 -75.3500 262° West 373 429 36,000  Level FlightAware
06:05PM 43.0890 -75.4340 261° West 372 428 36,000  Level FlightAware
06:06PM 43.0800 -75.5120 261° West 374 430 36,000  Level FlightAware
06:06PM 43.0710 -75.5920 261° West 375 432 36,000  Level FlightAware
06:07PM 43.0600 -75.6800 260° West 376 433 36,000  Level FlightAware
06:08PM 43.0510 -75.7560 261° West 377 434 36,000  Level FlightAware
06:08PM 43.0410 -75.8460 261° West 377 434 36,000  Level FlightAware
06:09PM 43.0310 -75.9290 261° West 378 435 36,000  Level FlightAware
06:09PM 43.0210 -76.0060 260° West 379 436 36,000  Level FlightAware
06:10PM 43.0110 -76.0920 261° West 379 436 36,000  Level FlightAware
06:11PM 43.0020 -76.1740 261° West 379 436 36,000  Level FlightAware
06:11PM 42.9910 -76.2580 260° West 378 435 36,000  Level FlightAware
06:12PM 42.9820 -76.3320 261° West 378 435 36,000  Level FlightAware
06:12PM 42.9710 -76.4170 260° West 377 434 36,000  Level FlightAware
06:13PM 42.9600 -76.5070 261° West 377 434 36,000  Level FlightAware
06:13PM 42.9510 -76.5820 261° West 376 433 36,000  Level FlightAware
06:14PM 42.9400 -76.6660 260° West 375 432 36,000  Level FlightAware
06:15PM 42.9290 -76.7500 260° West 375 432 36,000  Level FlightAware
06:15PM 42.9200 -76.8220 260° West 375 432 36,000  Level FlightAware
06:16PM 42.9100 -76.9060 261° West 375 432 36,000  Level FlightAware
06:16PM 42.8980 -76.9960 260° West 375 432 36,000  Level FlightAware
06:17PM 42.8820 -77.0740 254° West 377 434 36,000  Level FlightAware
06:18PM 42.8690 -77.1470 256° West 376 433 36,000  Level FlightAware
06:18PM 42.8560 -77.2300 258° West 379 436 36,000  Level FlightAware
06:19PM 42.8410 -77.3180 257° West 378 435 36,000  Level FlightAware
06:19PM 42.8280 -77.3940 257° West 378 435 36,000  Level FlightAware
06:20PM 42.8140 -77.4760 257° West 380 437 36,000  Level FlightAware
06:21PM 42.8000 -77.5600 257° West 381 438 36,000  Level FlightAware
06:21PM 42.7880 -77.6310 257° West 381 438 36,000  Level FlightAware
06:22PM 42.7730 -77.7170 257° West 382 440 36,000  Level FlightAware
06:22PM 42.7580 -77.8040 257° West 383 441 36,000  Level FlightAware
06:23PM 42.7440 -77.8830 256° West 383 441 36,000  Level FlightAware
06:23PM 42.7300 -77.9670 257° West 384 442 36,000  Level FlightAware
06:24PM 42.7150 -78.0510 256° West 383 441 36,000  Level FlightAware
06:25PM 42.7000 -78.1360 257° West 382 440 36,000  Level FlightAware
06:25PM 42.6870 -78.2090 256° West 381 438 36,000  Level FlightAware
06:26PM 42.6730 -78.2880 256° West 382 440 36,000  Level FlightAware
06:26PM 42.6570 -78.3770 256° West 383 441 36,000  Level FlightAware
06:27PM 42.6420 -78.4630 257° West 384 442 36,000  Level FlightAware
06:27PM 42.6290 -78.5370 257° West 385 443 36,000  Level FlightAware
06:28PM 42.6140 -78.6200 256° West 385 443 36,000  Level FlightAware
06:29PM 42.5980 -78.7040 256° West 385 443 36,000  Level FlightAware
06:29PM 42.5850 -78.7790 257° West 381 438 36,000  Level FlightAware
06:30PM 42.5690 -78.8670 256° West 380 437 36,000  Level FlightAware
06:30PM 42.5530 -78.9500 255° West 380 437 36,000  Level FlightAware
06:31PM 42.5400 -79.0230 256° West 380 437 36,000  Level FlightAware
06:32PM 42.5250 -79.1060 256° West 379 436 36,000  Level FlightAware
06:32PM 42.5100 -79.1830 255° West 378 435 36,000  Level FlightAware
06:33PM 42.4940 -79.2680 256° West 378 435 36,000  Level FlightAware
06:33PM 42.4780 -79.3530 256° West 377 434 36,000  Level FlightAware
06:34PM 42.4640 -79.4270 256° West 376 433 36,000  Level FlightAware
06:34PM 42.4500 -79.5030 256° West 376 433 36,000  Level FlightAware
06:35PM 42.4340 -79.5850 255° West 375 432 36,000  Level FlightAware
06:36PM 42.4200 -79.6590 256° West 375 432 36,000  Level FlightAware
06:36PM 42.4050 -79.7380 256° West 375 432 36,000  Level FlightAware
06:37PM 42.3890 -79.8200 255° West 375 432 36,000  Level FlightAware
06:37PM 42.3750 -79.8960 256° West 376 433 36,000  Level FlightAware
06:38PM 42.3600 -79.9730 255° West 376 433 36,000  Level FlightAware
06:39PM 42.3430 -80.0580 255° West 377 434 36,000  Level FlightAware
06:39PM 42.3270 -80.1400 255° West 377 434 36,000  Level FlightAware
06:40PM 42.3140 -80.2100 256° West 377 434 36,000  Level FlightAware
06:40PM 42.2950 -80.3030 255° West 378 435 36,000  Level FlightAware
06:41PM 42.2800 -80.3790 255° West 378 435 36,000  Level FlightAware
06:41PM 42.2630 -80.4620 255° West 379 436 36,000  Level FlightAware
06:42PM 42.2470 -80.5440 255° West 380 437 36,000  Level FlightAware
06:43PM 42.2330 -80.6150 255° West 380 437 36,000  Level FlightAware
06:43PM 42.2170 -80.6940 255° West 379 436 36,000  Level FlightAware
06:44PM 42.1970 -80.7950 255° West 378 435 36,000  Level FlightAware
06:45PM 42.1810 -80.8730 255° West 376 433 36,000  Level FlightAware
06:45PM 42.1630 -80.9600 254° West 375 432 36,000  Level FlightAware
06:46PM 42.1490 -81.0310 255° West 374 430 36,000  Level FlightAware
06:46PM 42.1330 -81.1070 254° West 373 429 36,000  Level FlightAware
06:47PM 42.1160 -81.1920 255° West 373 429 36,000  Level FlightAware
06:47PM 42.1000 -81.2680 254° West 372 428 36,000  Level FlightAware
06:48PM 42.0850 -81.3380 254° West 372 428 36,000  Level FlightAware
06:49PM 42.0680 -81.4240 255° West 372 428 36,000  Level FlightAware
06:49PM 42.0530 -81.4940 254° West 372 428 36,000  Level FlightAware
06:50PM 42.0380 -81.5650 254° West 372 428 36,000  Level FlightAware
06:50PM 42.0180 -81.6580 254° West 374 430 36,000  Level FlightAware
06:51PM 42.0040 -81.7270 255° West 374 430 36,000  Level FlightAware
06:52PM 41.9860 -81.8100 254° West 373 429 36,000  Level FlightAware
06:52PM 41.9690 -81.8900 254° West 373 429 36,000  Level FlightAware
06:53PM 41.9540 -81.9620 254° West 373 429 36,000  Level FlightAware
06:53PM 41.9360 -82.0460 254° West 373 429 36,000  Level FlightAware
06:54PM 41.9190 -82.1220 253° West 374 430 36,000  Level FlightAware
06:54PM 41.9020 -82.2010 254° West 373 429 36,000  Level FlightAware
06:55PM 41.8850 -82.2800 254° West 373 429 36,000  Level FlightAware
06:56PM 41.8700 -82.3520 254° West 372 428 36,000  Level FlightAware
06:56PM 41.8510 -82.4360 253° West 372 428 36,000  Level FlightAware
06:57PM 41.8340 -82.5160 254° West 370 426 36,000  Level FlightAware
06:57PM 41.8200 -82.5910 256° West 370 426 36,000  Level FlightAware
06:58PM 41.8080 -82.6720 259° West 371 427 36,000  Level FlightAware
06:58PM 41.7980 -82.7370 258° West 371 427 36,000  Level FlightAware
06:59PM 41.7850 -82.8170 258° West 371 427 36,000  Level FlightAware
07:00PM 41.7730 -82.8980 259° West 373 429 36,000  Level FlightAware
07:00PM 41.7610 -82.9690 257° West 373 429 36,000  Level FlightAware
07:01PM 41.7470 -83.0560 258° West 374 430 36,000 -120 Level FlightAware
07:01PM 41.7350 -83.1320 258° West 373 429 35,900 -660 Descending FlightAware
07:02PM 41.7230 -83.2100 258° West 374 430 35,300 -1,080 Descending FlightAware
07:03PM 41.7100 -83.2890 258° West 368 423 34,700 -1,020 Descending FlightAware
07:03PM 41.6970 -83.3680 258° West 361 415 34,100 -660 Descending FlightAware
07:04PM 41.6860 -83.4380 258° West 351 404 34,000 -120 Descending FlightAware
07:04PM 41.6740 -83.5090 257° West 352 405 34,000  Level FlightAware
07:05PM 41.6600 -83.5910 257° West 354 407 34,000  Level FlightAware
07:05PM 41.6480 -83.6670 258° West 357 411 34,000  Level FlightAware
07:06PM 41.6350 -83.7450 257° West 356 410 34,000  Level FlightAware
07:07PM 41.6230 -83.8140 257° West 356 410 34,000  Level FlightAware
07:07PM 41.6100 -83.8910 257° West 356 410 34,000  Level FlightAware
07:08PM 41.5990 -83.9590 258° West 356 410 34,000  Level FlightAware
07:08PM 41.5850 -84.0400 257° West 356 410 34,000  Level FlightAware
07:09PM 41.5750 -84.1010 258° West 357 411 34,000  Level FlightAware
07:09PM 41.5600 -84.1880 257° West 356 410 34,000  Level FlightAware
07:10PM 41.5470 -84.2630 257° West 356 410 34,000  Level FlightAware
07:11PM 41.5340 -84.3410 257° West 356 410 34,000  Level FlightAware
07:12PM 41.5170 -84.4400 257° West 355 409 34,000  Level FlightAware
07:12PM 41.5030 -84.5210 257° West 356 410 34,000  Level FlightAware
07:13PM 41.4900 -84.5930 256° West 356 410 34,000  Level FlightAware
07:13PM 41.4820 -84.6660 262° West 359 413 34,000  Level FlightAware
07:14PM 41.4840 -84.7420 272° West 359 413 34,000  Level FlightAware
07:14PM 41.4870 -84.8280 273° West 357 411 34,000 -720 Level FlightAware
07:15PM 41.4900 -84.9140 273° West 360 414 33,100 -1,140 Descending FlightAware
07:16PM 41.4940 -84.9990 274° West 371 427 32,600 -840 Descending FlightAware
07:16PM 41.4960 -85.0810 272° West 376 433 32,100 -1,020 Descending FlightAware
07:17PM 41.4990 -85.1520 273° West 377 434 31,500 -1,620 Descending FlightAware
07:17PM 41.5020 -85.2380 273° West 377 434 30,300 -1,980 Descending FlightAware
07:18PM 41.5040 -85.3160 272° West 380 437 29,200 -1,980 Descending FlightAware
07:19PM 41.5070 -85.4030 273° West 388 447 28,000 -1,980 Descending FlightAware
07:19PM 41.5100 -85.4900 273° West 393 452 26,800 -1,980 Descending FlightAware
07:20PM 41.5120 -85.5680 272° West 398 458 25,800 -2,160 Descending FlightAware
07:20PM 41.5150 -85.6550 273° West 394 453 24,400 -2,520 Descending FlightAware
07:21PM 41.5170 -85.7420 272° West 379 436 22,800 -2,760 Descending FlightAware
07:22PM 41.5200 -85.8280 273° West 371 427 21,100 -2,760 Descending FlightAware
07:22PM 41.5210 -85.9060 271° West 366 421 19,500 -2,400 Descending FlightAware
07:23PM 41.5210 -85.9670 270° West 355 409 18,600 -2,160 Descending FlightAware
07:23PM 41.5220 -86.0510 271° West 344 396 17,100 -2,280 Descending FlightAware
07:24PM 41.5220 -86.1150 270° West 337 388 16,000 -2,100 Descending FlightAware
07:24PM 41.5230 -86.1740 271° West 330 380 15,000 -2,040 Descending FlightAware
07:25PM 41.5230 -86.2440 270° West 323 372 13,800 -2,160 Descending FlightAware
07:26PM 41.5230 -86.3250 270° West 317 365 12,300 -2,340 Descending FlightAware
07:26PM 41.5230 -86.3850 270° West 313 360 11,200 -1,500 Descending FlightAware
07:27PM 41.5230 -86.4590 270° West 308 354 10,600 -900 Descending FlightAware
07:27PM 41.5230 -86.5160 270° West 307 353 10,200 -360 Descending FlightAware
07:28PM 41.5220 -86.5820 269° West 283 326 10,200  Level FlightAware
07:28PM 41.5220 -86.6350 270° West 248 285 10,200  Level FlightAware
07:29PM 41.5210 -86.6820 268° West 214 246 10,200  Level FlightAware
07:29PM 41.5160 -86.6970 246° West 210 242 10,200  Level FlightAware
07:30PM 41.5020 -86.7370 245° Southwest 207 238 10,200  Level FlightAware
07:30PM 41.4870 -86.7770 243° Southwest 206 237 10,200  Level FlightAware
07:31PM 41.4730 -86.8170 245° Southwest 206 237 10,200 -300 Level FlightAware
07:31PM 41.4610 -86.8520 245° Southwest 207 238 9,900 -840 Descending FlightAware
07:32PM 41.4550 -86.8690 245° Southwest 208 239 9,600 -840 Descending FlightAware
07:32PM 41.4470 -86.8900 243° Southwest 208 239 9,400 -900 Descending FlightAware
07:32PM 41.4380 -86.9170 246° West 207 238 9,000 -1,200 Descending FlightAware
07:33PM 41.4310 -86.9360 244° Southwest 205 236 8,700 -1,020 Descending FlightAware
07:33PM 41.4240 -86.9570 246° West 203 234 8,400 -960 Descending FlightAware
07:33PM 41.4160 -86.9790 244° Southwest 202 232 8,100 -1,140 Descending FlightAware
07:33PM 41.4140 -86.9900 256° West 200 230 7,900 -1,080 Descending FlightAware
07:34PM 41.4190 -87.0130 286° West 209 241 7,600 -1,020 Descending FlightAware
07:34PM 41.4250 -87.0230 309° West 215 247 7,400 -1,080 Descending FlightAware
07:34PM 41.4380 -87.0420 312° West 216 249 7,100 -1,080 Descending FlightAware
07:35PM 41.4530 -87.0640 312° West 216 249 6,700 -1,020 Descending FlightAware
07:35PM 41.4670 -87.0850 312° West 217 250 6,400 -960 Descending FlightAware
07:35PM 41.4750 -87.0970 312° West 218 251 6,200 -300 Descending FlightAware
07:36PM 41.4950 -87.1280 311° West 216 249 6,200  Level FlightAware
07:36PM 41.5060 -87.1450 311° West 206 237 6,200  Level FlightAware
07:36PM 41.5090 -87.1530 297° West 203 234 6,200  Level FlightAware
07:36PM 41.5120 -87.1620 294° West 196 226 6,200  Level FlightAware
07:36PM 41.5130 -87.1700 279° West 186 214 6,200  Level FlightAware
07:37PM 41.5140 -87.1930 273° West 165 190 6,200  Level FlightAware
07:37PM 41.5150 -87.2120 274° West 159 183 6,200  Level FlightAware
07:37PM 41.5170 -87.2360 276° West 157 181 6,200  Level FlightAware
07:38PM 41.5180 -87.2550 274° West 154 177 6,200  Level FlightAware
07:38PM 41.5200 -87.2730 278° West 152 175 6,200  Level FlightAware
07:38PM 41.5210 -87.2940 274° West 151 174 6,200  Level FlightAware
07:39PM 41.5230 -87.3160 277° West 150 173 6,200  Level FlightAware
07:39PM 41.5200 -87.3420 261° West 146 168 6,200  Level FlightAware
07:40PM 41.5150 -87.3590 249° West 146 168 6,200  Level FlightAware
07:40PM 41.5130 -87.3670 252° West 146 168 6,200  Level FlightAware
07:40PM 41.5130 -87.3690 270° West 148 170 6,200  Level FlightAware
07:40PM 41.5210 -87.3850 304° West 170 196 6,200  Level FlightAware
07:40PM 41.5290 -87.3950 317° Northwest 173 199 6,200 -660 Level FlightAware
07:41PM 41.5450 -87.4150 317° Northwest 175 201 5,800 -960 Descending FlightAware
07:41PM 41.5550 -87.4280 316° Northwest 176 203 5,500 -840 Descending FlightAware
07:41PM 41.5660 -87.4440 313° West 175 201 5,200 -960 Descending FlightAware
07:42PM 41.5800 -87.4640 313° West 160 184 4,800 -1,020 Descending FlightAware
07:42PM 41.5870 -87.4750 310° West 156 180 4,600 -900 Descending FlightAware
07:43PM 41.6010 -87.4930 316° Northwest 155 178 4,200 -480 Descending FlightAware
07:43PM 41.6150 -87.5130 313° West 151 174 4,200  Level FlightAware
07:43PM 41.6250 -87.5270 314° West 150 173 4,200  Level FlightAware
07:44PM 41.6320 -87.5370 313° West 155 178 4,200  Level FlightAware
07:44PM 41.6420 -87.5510 314° West 164 189 4,200  Level FlightAware
07:44PM 41.6540 -87.5680 313° West 164 189 4,200 -300 Level FlightAware
07:45PM 41.6660 -87.5840 315° West 163 188 4,000 -900 Descending FlightAware
07:45PM 41.6760 -87.5990 312° West 161 185 3,600 -1,200 Descending FlightAware
07:45PM 41.6870 -87.6140 314° West 168 193 3,200 -1,200 Descending FlightAware
07:46PM 41.6980 -87.6290 314° West 164 189 2,800 -840 Descending FlightAware
07:46PM 41.7060 -87.6410 312° West 169 194 2,700 -540 Descending FlightAware
07:46PM 41.7180 -87.6580 313° West 179 206 2,500 -660 Descending FlightAware
07:47PM 41.7290 -87.6700 321° Northwest 181 208 2,300 -900 Descending FlightAware
07:47PM 41.7350 -87.6740 334° Northwest 191 220 2,100 -1,080 Descending FlightAware
07:47PM 41.7430 -87.6750 355° North 196 226 2,000 -360 Descending FlightAware
07:47PM 41.7670 -87.6730 North 191 220 1,900 -180 Descending FlightAware
07:48PM 41.7840 -87.6690 10° North 194 223 1,900  Level FlightAware
07:48PM 41.8020 -87.6730 351° North 160 184 1,900  Level FlightAware
07:48PM 41.8060 -87.6770 323° Northwest 158 182 1,900 -420 Level FlightAware
07:48PM 41.8100 -87.6820 317° Northwest 148 170 1,800 -420 Descending FlightAware
07:48PM 41.8130 -87.6880 304° West 139 160 1,800 -300 Level FlightAware
07:49PM 41.8140 -87.6970 278° West 134 154 1,700 -780 Descending FlightAware
07:49PM 41.8120 -87.7150 262° West 130 150 1,400 -1,080 Descending FlightAware
07:49PM 41.8090 -87.7210 236° Southwest 127 146 1,200 -780 Descending FlightAware
07:49PM 41.8030 -87.7290 225° Southwest 124 143 1,100 -600 Descending FlightAware
07:50PM 41.7950 -87.7390 223° Southwest 135 155 900 -300 Descending FlightAware
07:50PM 41.7850 -87.7520 224° Southwest 135 155 900  Level FlightAware